sensor_id;sensor_type;location;lat;lon;timestamp;P1;durP1;ratioP1;P2;durP2;ratioP2
79005;SDS011;69202;45.498;-73.582;2024-01-11T00:00:31;1.08;;;0.60;;
79005;SDS011;69202;45.498;-73.582;2024-01-11T00:02:57;0.60;;;0.50;;
79005;SDS011;69202;45.498;-73.582;2024-01-11T00:05:23;1.70;;;0.60;;
79005;SDS011;69202;45.498;-73.582;2024-01-11T00:07:49;0.80;;;0.63;;
79005;SDS011;69202;45.498;-73.582;2024-01-11T00:10:16;0.90;;;0.60;;
79005;SDS011;69202;45.498;-73.582;2024-01-11T00:12:42;0.95;;;0.50;;
79005;SDS011;69202;45.498;-73.582;2024-01-11T00:15:08;4.57;;;0.50;;
79005;SDS011;69202;45.498;-73.582;2024-01-11T00:17:35;1.23;;;0.50;;
79005;SDS011;69202;45.498;-73.582;2024-01-11T00:20:01;1.55;;;0.50;;
79005;SDS011;69202;45.498;-73.582;2024-01-11T00:22:28;1.42;;;0.95;;
79005;SDS011;69202;45.498;-73.582;2024-01-11T00:24:53;0.55;;;0.50;;
79005;SDS011;69202;45.498;-73.582;2024-01-11T00:27:19;0.47;;;0.47;;
79005;SDS011;69202;45.498;-73.582;2024-01-11T00:29:45;1.23;;;0.75;;
79005;SDS011;69202;45.498;-73.582;2024-01-11T00:32:11;0.50;;;0.50;;
79005;SDS011;69202;45.498;-73.582;2024-01-11T00:34:37;0.73;;;0.50;;
79005;SDS011;69202;45.498;-73.582;2024-01-11T00:37:04;4.18;;;1.00;;
79005;SDS011;69202;45.498;-73.582;2024-01-11T00:39:30;26.73;;;4.55;;
79005;SDS011;69202;45.498;-73.582;2024-01-11T00:41:56;43.60;;;6.72;;
79005;SDS011;69202;45.498;-73.582;2024-01-11T00:44:22;68.00;;;12.15;;
79005;SDS011;69202;45.498;-73.582;2024-01-11T00:46:48;87.10;;;14.15;;
79005;SDS011;69202;45.498;-73.582;2024-01-11T00:49:14;88.78;;;14.82;;
79005;SDS011;69202;45.498;-73.582;2024-01-11T00:51:40;74.13;;;13.27;;
79005;SDS011;69202;45.498;-73.582;2024-01-11T00:54:05;68.95;;;14.40;;
79005;SDS011;69202;45.498;-73.582;2024-01-11T00:56:31;72.28;;;14.27;;
79005;SDS011;69202;45.498;-73.582;2024-01-11T00:58:57;83.00;;;14.25;;
79005;SDS011;69202;45.498;-73.582;2024-01-11T01:01:23;80.53;;;14.48;;
79005;SDS011;69202;45.498;-73.582;2024-01-11T01:03:49;69.60;;;13.25;;
79005;SDS011;69202;45.498;-73.582;2024-01-11T01:06:15;63.80;;;13.77;;
79005;SDS011;69202;45.498;-73.582;2024-01-11T01:08:41;64.63;;;13.00;;
79005;SDS011;69202;45.498;-73.582;2024-01-11T01:11:07;61.13;;;13.18;;
79005;SDS011;69202;45.498;-73.582;2024-01-11T01:13:33;58.88;;;12.88;;
79005;SDS011;69202;45.498;-73.582;2024-01-11T01:15:59;61.58;;;11.52;;
79005;SDS011;69202;45.498;-73.582;2024-01-11T01:18:25;57.25;;;11.82;;
79005;SDS011;69202;45.498;-73.582;2024-01-11T01:20:50;53.03;;;12.02;;
79005;SDS011;69202;45.498;-73.582;2024-01-11T01:23:16;44.13;;;10.95;;
79005;SDS011;69202;45.498;-73.582;2024-01-11T01:25:43;54.30;;;11.35;;
79005;SDS011;69202;45.498;-73.582;2024-01-11T01:28:09;46.90;;;10.60;;
79005;SDS011;69202;45.498;-73.582;2024-01-11T01:30:35;43.75;;;10.65;;
79005;SDS011;69202;45.498;-73.582;2024-01-11T01:33:01;45.20;;;10.70;;
79005;SDS011;69202;45.498;-73.582;2024-01-11T01:35:28;48.00;;;10.02;;
79005;SDS011;69202;45.498;-73.582;2024-01-11T01:37:53;39.85;;;9.68;;
79005;SDS011;69202;45.498;-73.582;2024-01-11T01:40:19;41.13;;;9.75;;
79005;SDS011;69202;45.498;-73.582;2024-01-11T01:42:45;32.08;;;7.78;;
79005;SDS011;69202;45.498;-73.582;2024-01-11T01:45:12;32.38;;;8.20;;
79005;SDS011;69202;45.498;-73.582;2024-01-11T01:47:41;28.95;;;8.45;;
79005;SDS011;69202;45.498;-73.582;2024-01-11T01:50:11;35.38;;;9.20;;
79005;SDS011;69202;45.498;-73.582;2024-01-11T01:52:38;30.92;;;7.85;;
79005;SDS011;69202;45.498;-73.582;2024-01-11T01:55:06;34.05;;;7.78;;
79005;SDS011;69202;45.498;-73.582;2024-01-11T01:57:35;27.88;;;7.07;;
79005;SDS011;69202;45.498;-73.582;2024-01-11T02:00:02;31.00;;;7.30;;
79005;SDS011;69202;45.498;-73.582;2024-01-11T02:02:29;20.70;;;6.82;;
79005;SDS011;69202;45.498;-73.582;2024-01-11T02:04:58;25.65;;;6.93;;
79005;SDS011;69202;45.498;-73.582;2024-01-11T02:07:24;23.90;;;6.35;;
79005;SDS011;69202;45.498;-73.582;2024-01-11T02:09:50;25.33;;;5.97;;
79005;SDS011;69202;45.498;-73.582;2024-01-11T02:12:17;21.35;;;6.63;;
79005;SDS011;69202;45.498;-73.582;2024-01-11T02:14:44;23.52;;;5.93;;
79005;SDS011;69202;45.498;-73.582;2024-01-11T02:17:09;21.23;;;6.10;;
79005;SDS011;69202;45.498;-73.582;2024-01-11T02:19:35;21.58;;;5.43;;
79005;SDS011;69202;45.498;-73.582;2024-01-11T02:22:04;21.45;;;5.97;;
79005;SDS011;69202;45.498;-73.582;2024-01-11T02:24:36;19.20;;;4.57;;
79005;SDS011;69202;45.498;-73.582;2024-01-11T02:27:03;16.13;;;5.10;;
79005;SDS011;69202;45.498;-73.582;2024-01-11T02:29:30;15.88;;;4.55;;
79005;SDS011;69202;45.498;-73.582;2024-01-11T02:31:57;18.80;;;4.95;;
79005;SDS011;69202;45.498;-73.582;2024-01-11T02:34:28;16.90;;;4.47;;
79005;SDS011;69202;45.498;-73.582;2024-01-11T02:36:54;15.88;;;4.35;;
79005;SDS011;69202;45.498;-73.582;2024-01-11T02:39:21;13.80;;;4.00;;
79005;SDS011;69202;45.498;-73.582;2024-01-11T02:41:54;17.42;;;4.20;;
79005;SDS011;69202;45.498;-73.582;2024-01-11T02:44:22;13.10;;;3.92;;
79005;SDS011;69202;45.498;-73.582;2024-01-11T02:46:48;11.15;;;3.63;;
79005;SDS011;69202;45.498;-73.582;2024-01-11T02:49:14;11.50;;;3.53;;
79005;SDS011;69202;45.498;-73.582;2024-01-11T02:51:40;11.25;;;3.47;;
79005;SDS011;69202;45.498;-73.582;2024-01-11T02:54:06;10.32;;;3.63;;
79005;SDS011;69202;45.498;-73.582;2024-01-11T02:56:32;11.85;;;3.42;;
79005;SDS011;69202;45.498;-73.582;2024-01-11T02:58:58;9.90;;;3.50;;
79005;SDS011;69202;45.498;-73.582;2024-01-11T03:01:24;13.02;;;3.60;;
79005;SDS011;69202;45.498;-73.582;2024-01-11T03:03:50;10.50;;;3.25;;
79005;SDS011;69202;45.498;-73.582;2024-01-11T03:06:16;12.68;;;4.07;;
79005;SDS011;69202;45.498;-73.582;2024-01-11T03:08:47;9.75;;;3.22;;
79005;SDS011;69202;45.498;-73.582;2024-01-11T03:11:14;16.55;;;4.15;;
79005;SDS011;69202;45.498;-73.582;2024-01-11T03:13:40;13.35;;;3.35;;
79005;SDS011;69202;45.498;-73.582;2024-01-11T03:16:05;10.23;;;2.95;;
79005;SDS011;69202;45.498;-73.582;2024-01-11T03:18:31;10.82;;;3.28;;
79005;SDS011;69202;45.498;-73.582;2024-01-11T03:20:57;9.00;;;2.80;;
79005;SDS011;69202;45.498;-73.582;2024-01-11T03:23:23;12.10;;;3.20;;
79005;SDS011;69202;45.498;-73.582;2024-01-11T03:25:49;8.55;;;2.70;;
79005;SDS011;69202;45.498;-73.582;2024-01-11T03:28:15;10.45;;;2.92;;
79005;SDS011;69202;45.498;-73.582;2024-01-11T03:30:41;13.05;;;2.65;;
79005;SDS011;69202;45.498;-73.582;2024-01-11T03:33:07;11.18;;;2.75;;
79005;SDS011;69202;45.498;-73.582;2024-01-11T03:35:33;31.88;;;4.30;;
79005;SDS011;69202;45.498;-73.582;2024-01-11T03:37:59;40.95;;;7.15;;
79005;SDS011;69202;45.498;-73.582;2024-01-11T03:40:24;43.88;;;8.25;;
79005;SDS011;69202;45.498;-73.582;2024-01-11T03:42:51;52.95;;;8.20;;
79005;SDS011;69202;45.498;-73.582;2024-01-11T03:45:18;51.92;;;7.68;;
79005;SDS011;69202;45.498;-73.582;2024-01-11T03:47:46;47.28;;;8.45;;
79005;SDS011;69202;45.498;-73.582;2024-01-11T03:50:12;34.65;;;7.22;;
79005;SDS011;69202;45.498;-73.582;2024-01-11T03:52:39;45.95;;;8.13;;
79005;SDS011;69202;45.498;-73.582;2024-01-11T03:55:05;48.42;;;7.53;;
79005;SDS011;69202;45.498;-73.582;2024-01-11T03:57:31;45.53;;;7.57;;
79005;SDS011;69202;45.498;-73.582;2024-01-11T03:59:57;43.38;;;7.22;;
79005;SDS011;69202;45.498;-73.582;2024-01-11T04:02:24;38.83;;;6.95;;
79005;SDS011;69202;45.498;-73.582;2024-01-11T04:04:50;32.90;;;6.18;;
79005;SDS011;69202;45.498;-73.582;2024-01-11T04:07:16;34.92;;;7.10;;
79005;SDS011;69202;45.498;-73.582;2024-01-11T04:09:42;31.33;;;5.60;;
79005;SDS011;69202;45.498;-73.582;2024-01-11T04:12:08;32.40;;;5.70;;
79005;SDS011;69202;45.498;-73.582;2024-01-11T04:14:37;31.52;;;4.97;;
79005;SDS011;69202;45.498;-73.582;2024-01-11T04:17:05;26.00;;;5.18;;
79005;SDS011;69202;45.498;-73.582;2024-01-11T04:19:31;23.38;;;5.68;;
79005;SDS011;69202;45.498;-73.582;2024-01-11T04:21:57;27.60;;;5.43;;
79005;SDS011;69202;45.498;-73.582;2024-01-11T04:24:22;25.20;;;4.82;;
79005;SDS011;69202;45.498;-73.582;2024-01-11T04:26:48;25.10;;;5.38;;
79005;SDS011;69202;45.498;-73.582;2024-01-11T04:29:14;25.13;;;4.63;;
79005;SDS011;69202;45.498;-73.582;2024-01-11T04:31:40;19.65;;;4.38;;
79005;SDS011;69202;45.498;-73.582;2024-01-11T04:34:06;19.55;;;5.30;;
79005;SDS011;69202;45.498;-73.582;2024-01-11T04:36:32;21.48;;;4.05;;
79005;SDS011;69202;45.498;-73.582;2024-01-11T04:38:58;21.98;;;4.13;;
79005;SDS011;69202;45.498;-73.582;2024-01-11T04:41:24;16.55;;;3.88;;
79005;SDS011;69202;45.498;-73.582;2024-01-11T04:43:50;20.90;;;3.92;;
79005;SDS011;69202;45.498;-73.582;2024-01-11T04:46:16;22.77;;;4.47;;
79005;SDS011;69202;45.498;-73.582;2024-01-11T04:48:43;17.83;;;3.65;;
79005;SDS011;69202;45.498;-73.582;2024-01-11T04:51:12;15.07;;;3.08;;
79005;SDS011;69202;45.498;-73.582;2024-01-11T04:53:39;16.35;;;3.45;;
79005;SDS011;69202;45.498;-73.582;2024-01-11T04:56:09;14.05;;;3.30;;
79005;SDS011;69202;45.498;-73.582;2024-01-11T04:58:36;14.80;;;3.10;;
79005;SDS011;69202;45.498;-73.582;2024-01-11T05:01:07;14.15;;;3.00;;
79005;SDS011;69202;45.498;-73.582;2024-01-11T05:03:37;14.57;;;2.95;;
79005;SDS011;69202;45.498;-73.582;2024-01-11T05:06:03;11.70;;;2.97;;
79005;SDS011;69202;45.498;-73.582;2024-01-11T05:08:29;12.02;;;2.85;;
79005;SDS011;69202;45.498;-73.582;2024-01-11T05:10:55;8.88;;;2.90;;
79005;SDS011;69202;45.498;-73.582;2024-01-11T05:13:21;8.77;;;2.50;;
79005;SDS011;69202;45.498;-73.582;2024-01-11T05:15:47;15.10;;;2.70;;
79005;SDS011;69202;45.498;-73.582;2024-01-11T05:18:13;14.70;;;3.03;;
79005;SDS011;69202;45.498;-73.582;2024-01-11T05:20:39;10.18;;;2.50;;
79005;SDS011;69202;45.498;-73.582;2024-01-11T05:23:06;9.73;;;2.88;;
79005;SDS011;69202;45.498;-73.582;2024-01-11T05:25:31;9.95;;;2.55;;
79005;SDS011;69202;45.498;-73.582;2024-01-11T05:28:01;6.78;;;2.55;;
79005;SDS011;69202;45.498;-73.582;2024-01-11T05:30:28;9.50;;;2.22;;
79005;SDS011;69202;45.498;-73.582;2024-01-11T05:32:54;6.72;;;1.85;;
79005;SDS011;69202;45.498;-73.582;2024-01-11T05:35:20;5.65;;;2.20;;
79005;SDS011;69202;45.498;-73.582;2024-01-11T05:37:49;4.68;;;2.15;;
79005;SDS011;69202;45.498;-73.582;2024-01-11T05:40:16;9.32;;;2.30;;
79005;SDS011;69202;45.498;-73.582;2024-01-11T05:42:42;6.45;;;1.77;;
79005;SDS011;69202;45.498;-73.582;2024-01-11T05:45:08;6.28;;;2.00;;
79005;SDS011;69202;45.498;-73.582;2024-01-11T05:47:34;6.43;;;2.35;;
79005;SDS011;69202;45.498;-73.582;2024-01-11T05:50:00;5.55;;;1.65;;
79005;SDS011;69202;45.498;-73.582;2024-01-11T05:52:26;4.30;;;1.85;;
79005;SDS011;69202;45.498;-73.582;2024-01-11T05:54:51;3.92;;;1.75;;
79005;SDS011;69202;45.498;-73.582;2024-01-11T05:57:17;5.70;;;1.90;;
79005;SDS011;69202;45.498;-73.582;2024-01-11T05:59:44;6.60;;;2.05;;
79005;SDS011;69202;45.498;-73.582;2024-01-11T06:02:10;5.82;;;1.83;;
79005;SDS011;69202;45.498;-73.582;2024-01-11T06:04:37;5.38;;;1.83;;
79005;SDS011;69202;45.498;-73.582;2024-01-11T06:07:03;4.43;;;1.70;;
79005;SDS011;69202;45.498;-73.582;2024-01-11T06:09:29;3.25;;;1.45;;
79005;SDS011;69202;45.498;-73.582;2024-01-11T06:11:55;4.45;;;1.83;;
79005;SDS011;69202;45.498;-73.582;2024-01-11T06:14:21;5.30;;;2.03;;
79005;SDS011;69202;45.498;-73.582;2024-01-11T06:16:47;4.80;;;1.73;;
79005;SDS011;69202;45.498;-73.582;2024-01-11T06:19:13;5.28;;;1.90;;
79005;SDS011;69202;45.498;-73.582;2024-01-11T06:21:39;4.43;;;1.73;;
79005;SDS011;69202;45.498;-73.582;2024-01-11T06:24:05;5.05;;;1.42;;
79005;SDS011;69202;45.498;-73.582;2024-01-11T06:26:31;7.45;;;1.98;;
79005;SDS011;69202;45.498;-73.582;2024-01-11T06:28:56;8.68;;;1.35;;
79005;SDS011;69202;45.498;-73.582;2024-01-11T06:31:23;2.88;;;1.10;;
79005;SDS011;69202;45.498;-73.582;2024-01-11T06:33:49;4.53;;;1.35;;
79005;SDS011;69202;45.498;-73.582;2024-01-11T06:36:15;2.60;;;1.30;;
79005;SDS011;69202;45.498;-73.582;2024-01-11T06:38:41;2.70;;;1.27;;
79005;SDS011;69202;45.498;-73.582;2024-01-11T06:41:07;2.65;;;1.23;;
79005;SDS011;69202;45.498;-73.582;2024-01-11T06:43:33;9.43;;;1.50;;
79005;SDS011;69202;45.498;-73.582;2024-01-11T06:46:03;7.63;;;1.52;;
79005;SDS011;69202;45.498;-73.582;2024-01-11T06:48:30;5.97;;;1.20;;
79005;SDS011;69202;45.498;-73.582;2024-01-11T06:50:56;4.60;;;1.58;;
79005;SDS011;69202;45.498;-73.582;2024-01-11T06:53:22;5.38;;;1.67;;
79005;SDS011;69202;45.498;-73.582;2024-01-11T06:55:48;3.03;;;1.20;;
79005;SDS011;69202;45.498;-73.582;2024-01-11T06:58:15;3.75;;;1.50;;
79005;SDS011;69202;45.498;-73.582;2024-01-11T07:00:41;3.22;;;1.33;;
79005;SDS011;69202;45.498;-73.582;2024-01-11T07:03:11;2.85;;;1.23;;
79005;SDS011;69202;45.498;-73.582;2024-01-11T07:05:38;2.75;;;1.48;;
79005;SDS011;69202;45.498;-73.582;2024-01-11T07:08:04;2.80;;;1.33;;
79005;SDS011;69202;45.498;-73.582;2024-01-11T07:10:30;2.22;;;1.13;;
79005;SDS011;69202;45.498;-73.582;2024-01-11T07:12:57;5.47;;;1.20;;
79005;SDS011;69202;45.498;-73.582;2024-01-11T07:15:23;2.15;;;1.17;;
79005;SDS011;69202;45.498;-73.582;2024-01-11T07:17:49;5.38;;;1.55;;
79005;SDS011;69202;45.498;-73.582;2024-01-11T07:20:15;4.07;;;1.77;;
79005;SDS011;69202;45.498;-73.582;2024-01-11T07:22:43;2.80;;;1.17;;
79005;SDS011;69202;45.498;-73.582;2024-01-11T07:25:09;2.47;;;1.05;;
79005;SDS011;69202;45.498;-73.582;2024-01-11T07:27:35;3.25;;;1.30;;
79005;SDS011;69202;45.498;-73.582;2024-01-11T07:30:01;2.35;;;1.08;;
79005;SDS011;69202;45.498;-73.582;2024-01-11T07:32:28;4.32;;;1.25;;
79005;SDS011;69202;45.498;-73.582;2024-01-11T07:34:54;2.75;;;0.90;;
79005;SDS011;69202;45.498;-73.582;2024-01-11T07:37:20;5.43;;;1.23;;
79005;SDS011;69202;45.498;-73.582;2024-01-11T07:39:46;3.08;;;1.13;;
79005;SDS011;69202;45.498;-73.582;2024-01-11T07:42:13;2.35;;;1.05;;
79005;SDS011;69202;45.498;-73.582;2024-01-11T07:44:39;2.78;;;1.00;;
79005;SDS011;69202;45.498;-73.582;2024-01-11T07:47:05;3.33;;;1.02;;
79005;SDS011;69202;45.498;-73.582;2024-01-11T07:49:31;6.63;;;1.30;;
79005;SDS011;69202;45.498;-73.582;2024-01-11T07:51:57;4.43;;;1.67;;
79005;SDS011;69202;45.498;-73.582;2024-01-11T07:54:23;7.80;;;1.02;;
79005;SDS011;69202;45.498;-73.582;2024-01-11T07:56:49;1.60;;;1.10;;
79005;SDS011;69202;45.498;-73.582;2024-01-11T07:59:15;4.82;;;1.20;;
79005;SDS011;69202;45.498;-73.582;2024-01-11T08:01:41;5.30;;;1.08;;
79005;SDS011;69202;45.498;-73.582;2024-01-11T08:04:06;4.00;;;1.25;;
79005;SDS011;69202;45.498;-73.582;2024-01-11T08:06:32;4.30;;;1.15;;
79005;SDS011;69202;45.498;-73.582;2024-01-11T08:08:59;3.13;;;1.20;;
79005;SDS011;69202;45.498;-73.582;2024-01-11T08:11:25;3.05;;;1.20;;
79005;SDS011;69202;45.498;-73.582;2024-01-11T08:13:50;4.22;;;1.13;;
79005;SDS011;69202;45.498;-73.582;2024-01-11T08:16:19;2.63;;;1.05;;
79005;SDS011;69202;45.498;-73.582;2024-01-11T08:18:47;1.60;;;0.85;;
79005;SDS011;69202;45.498;-73.582;2024-01-11T08:21:14;3.05;;;1.25;;
79005;SDS011;69202;45.498;-73.582;2024-01-11T08:23:40;2.75;;;0.98;;
79005;SDS011;69202;45.498;-73.582;2024-01-11T08:26:13;3.58;;;1.10;;
79005;SDS011;69202;45.498;-73.582;2024-01-11T08:28:40;4.32;;;1.00;;
79005;SDS011;69202;45.498;-73.582;2024-01-11T08:31:06;3.78;;;0.88;;
79005;SDS011;69202;45.498;-73.582;2024-01-11T08:33:32;2.15;;;0.95;;
79005;SDS011;69202;45.498;-73.582;2024-01-11T08:35:58;2.75;;;1.13;;
79005;SDS011;69202;45.498;-73.582;2024-01-11T08:38:24;1.83;;;1.17;;
79005;SDS011;69202;45.498;-73.582;2024-01-11T08:40:51;2.35;;;0.85;;
79005;SDS011;69202;45.498;-73.582;2024-01-11T08:43:17;2.55;;;1.00;;
79005;SDS011;69202;45.498;-73.582;2024-01-11T08:45:42;2.20;;;1.15;;
79005;SDS011;69202;45.498;-73.582;2024-01-11T08:48:08;1.45;;;1.02;;
79005;SDS011;69202;45.498;-73.582;2024-01-11T08:50:35;1.65;;;1.10;;
79005;SDS011;69202;45.498;-73.582;2024-01-11T08:53:01;1.70;;;1.05;;
79005;SDS011;69202;45.498;-73.582;2024-01-11T08:55:27;2.53;;;1.10;;
79005;SDS011;69202;45.498;-73.582;2024-01-11T08:57:53;1.92;;;1.00;;
79005;SDS011;69202;45.498;-73.582;2024-01-11T09:00:19;1.42;;;0.80;;
79005;SDS011;69202;45.498;-73.582;2024-01-11T09:02:45;0.90;;;0.80;;
79005;SDS011;69202;45.498;-73.582;2024-01-11T09:05:11;2.95;;;1.00;;
79005;SDS011;69202;45.498;-73.582;2024-01-11T09:07:39;1.83;;;0.82;;
79005;SDS011;69202;45.498;-73.582;2024-01-11T09:10:05;3.38;;;1.08;;
79005;SDS011;69202;45.498;-73.582;2024-01-11T09:12:34;1.88;;;0.85;;
79005;SDS011;69202;45.498;-73.582;2024-01-11T09:15:01;2.13;;;1.00;;
79005;SDS011;69202;45.498;-73.582;2024-01-11T09:17:27;1.63;;;0.90;;
79005;SDS011;69202;45.498;-73.582;2024-01-11T09:19:53;2.33;;;0.90;;
79005;SDS011;69202;45.498;-73.582;2024-01-11T09:22:19;3.72;;;0.90;;
79005;SDS011;69202;45.498;-73.582;2024-01-11T09:24:45;1.95;;;0.90;;
79005;SDS011;69202;45.498;-73.582;2024-01-11T09:27:11;5.80;;;1.08;;
79005;SDS011;69202;45.498;-73.582;2024-01-11T09:29:42;2.03;;;0.80;;
79005;SDS011;69202;45.498;-73.582;2024-01-11T09:32:09;5.25;;;1.20;;
79005;SDS011;69202;45.498;-73.582;2024-01-11T09:34:35;2.92;;;0.90;;
79005;SDS011;69202;45.498;-73.582;2024-01-11T09:37:01;4.60;;;0.90;;
79005;SDS011;69202;45.498;-73.582;2024-01-11T09:39:28;1.45;;;0.90;;
79005;SDS011;69202;45.498;-73.582;2024-01-11T09:41:58;4.43;;;0.90;;
79005;SDS011;69202;45.498;-73.582;2024-01-11T09:44:38;2.83;;;1.10;;
79005;SDS011;69202;45.498;-73.582;2024-01-11T09:47:05;7.85;;;1.23;;
79005;SDS011;69202;45.498;-73.582;2024-01-11T09:49:33;2.80;;;1.00;;
79005;SDS011;69202;45.498;-73.582;2024-01-11T09:52:03;3.17;;;1.08;;
79005;SDS011;69202;45.498;-73.582;2024-01-11T09:54:30;2.28;;;1.10;;
79005;SDS011;69202;45.498;-73.582;2024-01-11T09:56:58;3.05;;;1.15;;
79005;SDS011;69202;45.498;-73.582;2024-01-11T09:59:26;2.88;;;0.93;;
79005;SDS011;69202;45.498;-73.582;2024-01-11T10:01:52;4.63;;;1.23;;
79005;SDS011;69202;45.498;-73.582;2024-01-11T10:04:18;1.83;;;1.02;;
79005;SDS011;69202;45.498;-73.582;2024-01-11T10:06:44;2.58;;;0.98;;
79005;SDS011;69202;45.498;-73.582;2024-01-11T10:09:10;2.35;;;0.90;;
79005;SDS011;69202;45.498;-73.582;2024-01-11T10:11:37;6.03;;;0.90;;
79005;SDS011;69202;45.498;-73.582;2024-01-11T10:14:03;3.20;;;1.10;;
79005;SDS011;69202;45.498;-73.582;2024-01-11T10:16:30;7.28;;;1.10;;
79005;SDS011;69202;45.498;-73.582;2024-01-11T10:18:56;1.40;;;1.08;;
79005;SDS011;69202;45.498;-73.582;2024-01-11T10:21:23;2.05;;;0.90;;
79005;SDS011;69202;45.498;-73.582;2024-01-11T10:23:49;1.30;;;0.90;;
79005;SDS011;69202;45.498;-73.582;2024-01-11T10:26:16;4.93;;;1.40;;
79005;SDS011;69202;45.498;-73.582;2024-01-11T10:28:45;2.03;;;1.08;;
79005;SDS011;69202;45.498;-73.582;2024-01-11T10:31:12;3.72;;;1.10;;
79005;SDS011;69202;45.498;-73.582;2024-01-11T10:33:40;7.25;;;1.02;;
79005;SDS011;69202;45.498;-73.582;2024-01-11T10:36:06;1.30;;;0.80;;
79005;SDS011;69202;45.498;-73.582;2024-01-11T10:38:36;2.42;;;1.10;;
79005;SDS011;69202;45.498;-73.582;2024-01-11T10:41:07;2.40;;;1.17;;
79005;SDS011;69202;45.498;-73.582;2024-01-11T10:43:37;1.90;;;1.10;;
79005;SDS011;69202;45.498;-73.582;2024-01-11T10:46:04;6.72;;;1.23;;
79005;SDS011;69202;45.498;-73.582;2024-01-11T10:48:32;2.53;;;1.00;;
79005;SDS011;69202;45.498;-73.582;2024-01-11T10:51:02;4.80;;;0.93;;
79005;SDS011;69202;45.498;-73.582;2024-01-11T10:56:13;6.45;;;1.40;;
79005;SDS011;69202;45.498;-73.582;2024-01-11T10:58:41;4.38;;;0.90;;
79005;SDS011;69202;45.498;-73.582;2024-01-11T11:01:11;32.65;;;2.55;;
79005;SDS011;69202;45.498;-73.582;2024-01-11T11:03:38;11.57;;;1.60;;
79005;SDS011;69202;45.498;-73.582;2024-01-11T11:06:05;12.43;;;1.88;;
79005;SDS011;69202;45.498;-73.582;2024-01-11T11:08:33;13.00;;;1.80;;
79005;SDS011;69202;45.498;-73.582;2024-01-11T11:11:00;12.10;;;1.70;;
79005;SDS011;69202;45.498;-73.582;2024-01-11T11:13:32;8.77;;;1.45;;
79005;SDS011;69202;45.498;-73.582;2024-01-11T11:16:00;9.98;;;1.42;;
79005;SDS011;69202;45.498;-73.582;2024-01-11T11:18:28;9.82;;;1.60;;
79005;SDS011;69202;45.498;-73.582;2024-01-11T11:20:54;6.20;;;2.03;;
79005;SDS011;69202;45.498;-73.582;2024-01-11T11:23:20;8.60;;;1.33;;
79005;SDS011;69202;45.498;-73.582;2024-01-11T11:25:48;6.43;;;1.40;;
79005;SDS011;69202;45.498;-73.582;2024-01-11T11:28:15;13.75;;;1.33;;
79005;SDS011;69202;45.498;-73.582;2024-01-11T11:30:43;5.97;;;1.73;;
79005;SDS011;69202;45.498;-73.582;2024-01-11T11:33:10;8.48;;;1.70;;
79005;SDS011;69202;45.498;-73.582;2024-01-11T11:35:47;7.82;;;1.35;;
79005;SDS011;69202;45.498;-73.582;2024-01-11T11:38:17;12.98;;;1.67;;
79005;SDS011;69202;45.498;-73.582;2024-01-11T11:40:45;11.70;;;1.63;;
79005;SDS011;69202;45.498;-73.582;2024-01-11T11:43:15;10.52;;;1.80;;
79005;SDS011;69202;45.498;-73.582;2024-01-11T11:45:42;6.07;;;1.35;;
79005;SDS011;69202;45.498;-73.582;2024-01-11T11:53:36;6.85;;;1.50;;
79005;SDS011;69202;45.498;-73.582;2024-01-11T11:56:03;5.78;;;1.23;;
79005;SDS011;69202;45.498;-73.582;2024-01-11T11:58:29;15.75;;;1.83;;
79005;SDS011;69202;45.498;-73.582;2024-01-11T12:01:00;12.13;;;1.88;;
79005;SDS011;69202;45.498;-73.582;2024-01-11T12:03:31;10.48;;;1.60;;
79005;SDS011;69202;45.498;-73.582;2024-01-11T12:05:59;3.42;;;1.33;;
79005;SDS011;69202;45.498;-73.582;2024-01-11T12:08:25;8.63;;;1.50;;
79005;SDS011;69202;45.498;-73.582;2024-01-11T12:10:52;55.20;;;30.55;;
79005;SDS011;69202;45.498;-73.582;2024-01-11T12:13:18;86.68;;;47.03;;
79005;SDS011;69202;45.498;-73.582;2024-01-11T12:15:45;97.03;;;55.72;;
79005;SDS011;69202;45.498;-73.582;2024-01-11T12:18:12;99.78;;;56.53;;
79005;SDS011;69202;45.498;-73.582;2024-01-11T12:20:38;103.40;;;57.15;;
79005;SDS011;69202;45.498;-73.582;2024-01-11T12:23:04;107.78;;;56.08;;
79005;SDS011;69202;45.498;-73.582;2024-01-11T12:25:30;95.38;;;56.95;;
79005;SDS011;69202;45.498;-73.582;2024-01-11T12:27:57;90.95;;;52.97;;
79005;SDS011;69202;45.498;-73.582;2024-01-11T12:30:26;91.40;;;52.05;;
79005;SDS011;69202;45.498;-73.582;2024-01-11T12:32:55;81.28;;;46.83;;
79005;SDS011;69202;45.498;-73.582;2024-01-11T12:35:22;82.22;;;46.55;;
79005;SDS011;69202;45.498;-73.582;2024-01-11T12:38:01;76.72;;;43.50;;
79005;SDS011;69202;45.498;-73.582;2024-01-11T12:40:32;66.90;;;38.70;;
79005;SDS011;69202;45.498;-73.582;2024-01-11T12:43:05;61.72;;;35.67;;
79005;SDS011;69202;45.498;-73.582;2024-01-11T12:45:33;59.90;;;32.90;;
79005;SDS011;69202;45.498;-73.582;2024-01-11T12:48:02;51.45;;;30.13;;
79005;SDS011;69202;45.498;-73.582;2024-01-11T12:50:29;47.80;;;28.77;;
79005;SDS011;69202;45.498;-73.582;2024-01-11T12:53:31;46.78;;;26.85;;
79005;SDS011;69202;45.498;-73.582;2024-01-11T12:56:03;43.22;;;25.25;;
79005;SDS011;69202;45.498;-73.582;2024-01-11T12:58:33;41.15;;;22.92;;
79005;SDS011;69202;45.498;-73.582;2024-01-11T13:00:59;35.35;;;20.35;;
79005;SDS011;69202;45.498;-73.582;2024-01-11T13:03:25;34.88;;;21.55;;
79005;SDS011;69202;45.498;-73.582;2024-01-11T13:05:56;32.85;;;19.27;;
79005;SDS011;69202;45.498;-73.582;2024-01-11T13:08:22;28.77;;;17.88;;
79005;SDS011;69202;45.498;-73.582;2024-01-11T13:10:49;26.75;;;16.30;;
79005;SDS011;69202;45.498;-73.582;2024-01-11T13:13:16;29.15;;;16.17;;
79005;SDS011;69202;45.498;-73.582;2024-01-11T13:15:41;23.55;;;14.52;;
79005;SDS011;69202;45.498;-73.582;2024-01-11T13:18:07;25.13;;;14.23;;
79005;SDS011;69202;45.498;-73.582;2024-01-11T13:20:34;23.83;;;13.20;;
79005;SDS011;69202;45.498;-73.582;2024-01-11T13:23:16;23.65;;;13.00;;
79005;SDS011;69202;45.498;-73.582;2024-01-11T13:25:45;24.33;;;12.73;;
79005;SDS011;69202;45.498;-73.582;2024-01-11T13:28:12;22.38;;;11.73;;
79005;SDS011;69202;45.498;-73.582;2024-01-11T13:30:42;21.88;;;11.23;;
79005;SDS011;69202;45.498;-73.582;2024-01-11T13:33:10;18.45;;;10.27;;
79005;SDS011;69202;45.498;-73.582;2024-01-11T13:35:37;20.88;;;10.45;;
79005;SDS011;69202;45.498;-73.582;2024-01-11T13:38:04;16.30;;;9.38;;
79005;SDS011;69202;45.498;-73.582;2024-01-11T13:40:31;17.83;;;9.40;;
79005;SDS011;69202;45.498;-73.582;2024-01-11T13:42:57;19.75;;;9.82;;
79005;SDS011;69202;45.498;-73.582;2024-01-11T13:45:24;15.27;;;8.55;;
79005;SDS011;69202;45.498;-73.582;2024-01-11T13:47:50;15.65;;;8.40;;
79005;SDS011;69202;45.498;-73.582;2024-01-11T13:50:19;13.38;;;7.60;;
79005;SDS011;69202;45.498;-73.582;2024-01-11T13:52:45;16.35;;;7.68;;
79005;SDS011;69202;45.498;-73.582;2024-01-11T13:55:12;15.52;;;7.10;;
79005;SDS011;69202;45.498;-73.582;2024-01-11T13:57:38;11.68;;;6.53;;
79005;SDS011;69202;45.498;-73.582;2024-01-11T14:00:05;12.65;;;6.78;;
79005;SDS011;69202;45.498;-73.582;2024-01-11T14:02:32;12.18;;;6.13;;
79005;SDS011;69202;45.498;-73.582;2024-01-11T14:04:58;11.52;;;6.03;;
79005;SDS011;69202;45.498;-73.582;2024-01-11T14:07:24;10.27;;;5.40;;
79005;SDS011;69202;45.498;-73.582;2024-01-11T14:09:51;10.30;;;5.00;;
79005;SDS011;69202;45.498;-73.582;2024-01-11T14:12:17;10.80;;;5.45;;
79005;SDS011;69202;45.498;-73.582;2024-01-11T14:14:43;7.22;;;4.40;;
79005;SDS011;69202;45.498;-73.582;2024-01-11T14:17:09;11.80;;;5.03;;
79005;SDS011;69202;45.498;-73.582;2024-01-11T14:19:35;13.77;;;4.63;;